createdAt,value
2018-05-18T00:45:29.401Z,1.00
2018-05-18T01:10:11.380Z,1.00
2018-05-18T01:18:16.313Z,1.00
2018-05-18T01:20:51.057Z,1.00
2018-05-18T03:13:03.851Z,1.00
2018-05-18T03:15:38.431Z,1.00
2018-05-18T03:18:06.475Z,1.00
2018-05-18T03:20:34.534Z,1.00
2018-05-18T03:23:03.756Z,1.00
2018-05-18T03:25:33.690Z,1.00
2018-05-18T03:28:09.466Z,1.00
2018-05-18T03:30:39.531Z,1.00
2018-05-18T03:33:07.593Z,1.00
2018-05-18T03:35:39.498Z,1.00
2018-05-18T03:38:08.511Z,1.00
2018-05-18T03:45:44.566Z,1.00
2018-05-18T19:17:36.238Z,99.90
2018-05-18T19:20:04.278Z,99.90
2018-05-18T19:22:34.210Z,99.90
2018-05-18T19:25:02.273Z,99.90
2018-05-18T19:27:33.545Z,99.90
2018-05-18T19:30:01.614Z,1.00
2018-05-18T19:32:30.569Z,1.00
2018-05-18T19:34:58.625Z,1.00
2018-05-18T19:37:26.666Z,1.00
2018-05-18T19:39:56.470Z,1.00
2018-05-18T19:42:26.182Z,1.00
2018-05-18T19:44:55.012Z,1.00
2018-05-18T19:47:23.066Z,1.00
2018-05-18T19:49:53.776Z,1.00
2018-05-18T19:52:22.589Z,1.00
2018-05-18T19:54:54.329Z,1.00
2018-05-18T19:57:28.208Z,1.00
2018-05-18T20:00:01.926Z,1.00
2018-05-18T20:02:30.763Z,1.00
2018-05-18T20:05:03.397Z,1.00
2018-05-18T20:07:39.102Z,1.00
2018-05-18T20:10:09.806Z,1.00
2018-05-18T20:12:44.930Z,1.00
2018-05-18T20:15:14.203Z,1.00
2018-05-18T20:17:45.826Z,1.00
2018-05-18T20:20:20.877Z,1.00
2018-05-18T20:22:51.878Z,1.00
2018-05-18T20:25:22.526Z,1.00
2018-05-18T20:27:52.094Z,1.00
2018-05-18T20:30:24.750Z,1.00
2018-05-18T20:32:55.609Z,1.00
2018-05-18T20:35:24.341Z,1.00
2018-05-18T20:37:58.209Z,1.00
2018-05-18T20:40:36.033Z,42.30
2018-05-18T20:43:04.780Z,39.20
2018-05-18T20:45:39.083Z,91.10
2018-05-18T20:48:12.778Z,93.40
2018-05-18T20:50:51.117Z,72.90
2018-05-18T20:53:21.769Z,97.20
2018-05-18T20:58:24.362Z,99.90
2018-05-18T21:00:54.969Z,99.90
2018-05-18T21:03:26.609Z,99.90
2018-05-18T21:05:55.722Z,99.90
2018-05-18T21:11:04.346Z,99.90
2018-05-18T21:13:58.249Z,99.90
2018-05-18T21:16:31.226Z,99.90
2018-05-18T21:19:05.594Z,99.90
2018-05-18T21:21:39.890Z,99.90
2018-05-18T21:24:08.530Z,99.90
2018-05-18T21:26:38.877Z,99.90
2018-05-18T21:29:06.981Z,99.90
2018-05-18T21:31:36.042Z,99.90
2018-05-18T21:34:08.772Z,99.90
2018-05-18T21:36:37.881Z,99.90
2018-05-18T21:39:08.771Z,99.90
2018-05-18T21:41:37.650Z,99.90
2018-05-18T21:44:05.942Z,99.90
2018-05-18T21:46:36.520Z,99.90
2018-05-18T21:49:12.601Z,99.90
2018-05-18T21:51:59.498Z,1.00
2018-05-18T22:25:45.030Z,1.00
2018-05-18T22:43:41.437Z,1.00
2018-05-18T22:48:46.489Z,1.00
2018-05-18T22:59:13.081Z,1.00
2018-05-18T23:04:20.308Z,1.00
2018-05-18T23:06:50.231Z,1.00
2018-05-18T23:12:00.028Z,1.00
2018-05-18T23:24:55.209Z,1.00
2018-05-18T23:27:26.453Z,1.00
2018-05-18T23:30:00.893Z,1.00
2018-05-18T23:32:34.069Z,1.00
2018-05-18T23:35:06.808Z,1.00
2018-05-18T23:37:37.685Z,1.00
2018-05-18T23:47:55.201Z,1.00
2018-05-18T23:52:59.611Z,1.00
